createdAt,value
2023-04-10T00:01:28.027Z,10.43
2023-04-10T00:04:03.371Z,10.41
2023-04-10T00:06:35.155Z,10.36
2023-04-10T00:09:03.473Z,10.34
2023-04-10T00:11:32.511Z,10.31
2023-04-10T00:14:01.870Z,10.30
2023-04-10T00:16:32.417Z,10.30
2023-04-10T00:19:01.173Z,10.28
2023-04-10T00:21:29.804Z,10.25
2023-04-10T00:24:01.522Z,10.27
2023-04-10T00:26:31.237Z,10.26
2023-04-10T00:29:00.737Z,10.25
2023-04-10T00:31:38.112Z,10.20
2023-04-10T00:34:09.111Z,10.19
2023-04-10T00:36:38.871Z,10.21
2023-04-10T00:39:07.808Z,10.18
2023-04-10T00:41:40.398Z,10.19
2023-04-10T00:44:08.939Z,10.19
2023-04-10T00:46:37.957Z,10.17
2023-04-10T00:49:06.591Z,10.16
2023-04-10T00:51:35.642Z,10.12
2023-04-10T00:54:10.762Z,10.12
2023-04-10T00:56:39.076Z,10.12
2023-04-10T00:59:07.473Z,10.12
2023-04-10T01:01:38.379Z,10.07
2023-04-10T01:04:13.387Z,10.06
2023-04-10T01:07:00.710Z,10.06
2023-04-10T01:09:36.746Z,10.01
2023-04-10T01:12:13.111Z,9.98
2023-04-10T01:15:02.498Z,9.98
2023-04-10T01:17:52.817Z,9.95
2023-04-10T01:20:25.804Z,9.95
2023-04-10T01:23:31.731Z,9.98
2023-04-10T01:26:01.391Z,9.96
2023-04-10T01:28:31.827Z,9.98
2023-04-10T01:31:00.565Z,9.99
2023-04-10T01:33:33.246Z,10.00
2023-04-10T01:36:03.368Z,9.96
2023-04-10T01:38:34.324Z,9.96
2023-04-10T01:41:02.592Z,9.97
2023-04-10T01:43:32.256Z,9.97
2023-04-10T01:46:02.188Z,9.94
2023-04-10T01:48:30.812Z,9.96
2023-04-10T01:51:00.319Z,9.98
2023-04-10T01:53:28.559Z,9.99
2023-04-10T01:55:56.813Z,9.97
2023-04-10T01:58:25.579Z,9.98
2023-04-10T02:00:58.232Z,10.00
2023-04-10T02:03:28.085Z,10.00
2023-04-10T02:06:09.143Z,9.95
2023-04-10T02:09:17.633Z,9.95
2023-04-10T02:11:52.268Z,9.96
2023-04-10T02:14:25.113Z,9.94
2023-04-10T02:16:54.718Z,9.97
2023-04-10T02:19:23.973Z,9.94
2023-04-10T02:21:54.348Z,9.94
2023-04-10T02:24:22.824Z,9.95
2023-04-10T02:26:51.950Z,9.93
2023-04-10T02:29:22.130Z,9.94
2023-04-10T02:31:50.910Z,9.95
2023-04-10T02:34:19.593Z,9.91
2023-04-10T02:36:49.018Z,9.91
2023-04-10T02:39:17.217Z,9.91
2023-04-10T02:41:52.875Z,9.88
2023-04-10T02:44:21.794Z,9.83
2023-04-10T02:46:49.989Z,9.84
2023-04-10T02:49:18.267Z,9.85
2023-04-10T02:51:46.634Z,9.85
2023-04-10T02:54:15.775Z,9.84
2023-04-10T02:56:44.265Z,9.86
2023-04-10T02:59:13.485Z,9.81
2023-04-10T03:01:42.801Z,9.79
2023-04-10T03:04:11.179Z,9.81
2023-04-10T03:06:41.057Z,9.85
2023-04-10T03:09:09.319Z,9.85
2023-04-10T03:11:37.601Z,9.85
2023-04-10T03:14:11.716Z,9.84
2023-04-10T03:16:40.033Z,9.85
2023-04-10T03:19:08.251Z,9.87
2023-04-10T03:21:36.628Z,9.80
2023-04-10T03:24:06.254Z,9.79
2023-04-10T03:26:34.464Z,9.81
2023-04-10T03:29:03.782Z,9.80
2023-04-10T03:31:32.244Z,9.81
2023-04-10T03:34:01.279Z,9.80
2023-04-10T03:36:29.792Z,9.81
2023-04-10T03:38:58.019Z,9.81
2023-04-10T03:41:27.409Z,9.80
2023-04-10T03:43:56.382Z,9.75
2023-04-10T03:46:25.178Z,9.74
2023-04-10T03:48:54.359Z,9.75
2023-04-10T03:51:24.815Z,9.74
2023-04-10T03:53:53.763Z,9.72
2023-04-10T03:56:22.737Z,9.72
2023-04-10T03:58:55.508Z,9.73
2023-04-10T04:01:24.795Z,9.76
2023-04-10T04:04:00.747Z,9.76
2023-04-10T04:06:51.559Z,9.76
2023-04-10T04:09:45.904Z,9.77
2023-04-10T04:12:22.134Z,9.77
2023-04-10T04:15:04.740Z,9.72
2023-04-10T04:17:54.455Z,9.72
2023-04-10T04:20:41.690Z,9.74
2023-04-10T04:23:31.768Z,9.74
2023-04-10T04:26:25.195Z,9.72
2023-04-10T04:29:15.754Z,9.76
2023-04-10T04:32:16.801Z,9.78
2023-04-10T04:35:03.667Z,9.75
2023-04-10T04:37:51.034Z,9.67
2023-04-10T04:40:48.832Z,9.64
2023-04-10T04:43:41.652Z,9.62
2023-04-10T04:46:28.119Z,9.65
2023-04-10T04:49:28.978Z,9.63
2023-04-10T04:52:16.544Z,9.60
2023-04-10T04:54:49.369Z,9.56
2023-04-10T04:57:47.735Z,9.58
2023-04-10T05:00:25.541Z,9.62
2023-04-10T05:03:24.428Z,9.64
2023-04-10T05:06:14.664Z,9.67
2023-04-10T05:09:12.214Z,9.72
2023-04-10T05:11:59.113Z,9.75
2023-04-10T05:14:46.417Z,9.77
2023-04-10T05:17:39.663Z,9.79
2023-04-10T05:20:37.124Z,9.78
2023-04-10T05:23:43.885Z,9.79
2023-04-10T05:26:44.395Z,9.77
2023-04-10T05:31:25.366Z,9.71
2023-04-10T05:34:00.356Z,9.73
2023-04-10T05:36:44.140Z,9.78
2023-04-10T05:39:38.689Z,9.78
2023-04-10T05:42:25.119Z,9.80
2023-04-10T05:45:15.370Z,9.79
2023-04-10T05:48:26.275Z,9.80
2023-04-10T05:51:13.431Z,9.76
2023-04-10T05:54:01.096Z,9.78
2023-04-10T05:56:42.971Z,9.79
2023-04-10T05:59:40.406Z,9.81
2023-04-10T06:02:28.405Z,9.82
2023-04-10T06:04:56.884Z,9.88
2023-04-10T06:07:25.676Z,9.93
2023-04-10T06:09:55.461Z,10.00
2023-04-10T06:12:24.423Z,10.00
2023-04-10T06:14:54.747Z,10.02
2023-04-10T06:17:25.912Z,10.05
2023-04-10T06:19:56.772Z,10.04
2023-04-10T06:22:32.954Z,10.01
2023-04-10T06:25:02.382Z,10.04
2023-04-10T06:27:35.509Z,10.04
2023-04-10T06:30:09.964Z,10.01
2023-04-10T06:32:41.136Z,9.96
2023-04-10T06:35:10.465Z,9.93
2023-04-10T06:37:40.341Z,9.95
2023-04-10T06:40:10.152Z,9.97
2023-04-10T06:42:38.821Z,9.96
2023-04-10T06:45:23.534Z,9.93
2023-04-10T06:47:52.526Z,9.97
2023-04-10T06:50:23.530Z,9.99
2023-04-10T06:52:53.504Z,9.99
2023-04-10T06:55:21.834Z,10.04
2023-04-10T06:58:09.825Z,10.06
2023-04-10T07:00:38.806Z,10.10
2023-04-10T07:03:08.281Z,10.13
2023-04-10T07:05:36.464Z,10.15
2023-04-10T07:08:04.843Z,10.16
2023-04-10T07:10:36.479Z,10.18
2023-04-10T07:13:06.243Z,10.12
2023-04-10T07:15:42.193Z,10.13
2023-04-10T07:18:10.336Z,10.12
2023-04-10T07:20:38.555Z,10.14
2023-04-10T07:23:12.089Z,10.16
2023-04-10T07:25:43.323Z,10.21
2023-04-10T07:28:11.589Z,10.25
2023-04-10T07:30:39.914Z,10.24
2023-04-10T07:33:08.392Z,10.22
2023-04-10T07:35:36.749Z,10.24
2023-04-10T07:38:07.624Z,10.21
2023-04-10T07:40:36.042Z,10.17
2023-04-10T07:43:04.633Z,10.17
2023-04-10T07:45:33.260Z,10.15
2023-04-10T07:48:02.914Z,10.15
2023-04-10T07:50:34.188Z,10.18
2023-04-10T07:53:07.964Z,10.16
2023-04-10T07:55:39.683Z,10.22
2023-04-10T07:58:11.010Z,10.28
2023-04-10T08:00:39.505Z,10.28
2023-04-10T08:03:07.940Z,10.30
2023-04-10T08:05:37.092Z,10.33
2023-04-10T08:08:05.618Z,10.34
2023-04-10T08:10:37.797Z,10.33
2023-04-10T08:13:06.738Z,10.28
2023-04-10T08:15:35.717Z,10.27
2023-04-10T08:18:09.635Z,10.23
2023-04-10T08:20:40.417Z,10.20
2023-04-10T08:23:19.811Z,10.17
2023-04-10T08:25:49.369Z,10.04
2023-04-10T08:28:17.749Z,9.94
2023-04-10T08:30:45.809Z,9.87
2023-04-10T08:33:14.911Z,9.81
2023-04-10T08:35:43.376Z,9.77
2023-04-10T08:38:14.087Z,9.72
2023-04-10T08:40:44.778Z,9.70
2023-04-10T08:43:14.719Z,9.70
2023-04-10T08:45:43.688Z,9.69
2023-04-10T08:48:11.874Z,9.68
2023-04-10T08:50:44.019Z,9.71
2023-04-10T08:53:13.775Z,9.76
2023-04-10T08:55:45.000Z,9.78
2023-04-10T08:58:14.010Z,9.79
2023-04-10T09:00:42.781Z,9.82
2023-04-10T09:03:14.353Z,9.88
2023-04-10T09:05:42.790Z,9.91
2023-04-10T09:08:14.184Z,9.91
2023-04-10T09:10:43.975Z,9.97
2023-04-10T09:13:12.859Z,10.04
2023-04-10T09:15:59.925Z,10.11
2023-04-10T09:18:51.271Z,10.15
2023-04-10T09:21:20.342Z,10.19
2023-04-10T09:23:49.093Z,10.26
2023-04-10T09:26:33.563Z,10.37
2023-04-10T09:29:03.339Z,10.46
2023-04-10T09:31:38.740Z,10.48
2023-04-10T09:34:08.416Z,10.55
2023-04-10T09:36:38.059Z,10.68
2023-04-10T09:39:09.100Z,10.77
2023-04-10T09:41:57.456Z,10.86
2023-04-10T09:44:34.006Z,10.86
2023-04-10T09:47:13.684Z,10.85
2023-04-10T09:49:50.270Z,10.85
2023-04-10T09:52:33.387Z,10.84
2023-04-10T09:55:09.704Z,10.76
2023-04-10T09:57:38.275Z,10.78
2023-04-10T10:00:10.779Z,10.83
2023-04-10T10:02:40.196Z,10.87
2023-04-10T10:05:09.928Z,11.00
2023-04-10T10:07:42.115Z,11.16
2023-04-10T10:10:12.196Z,11.31
2023-04-10T10:12:46.039Z,11.38
2023-04-10T10:15:23.565Z,11.44
2023-04-10T10:18:22.822Z,11.52
2023-04-10T10:20:51.187Z,11.65
2023-04-10T10:23:26.528Z,11.79
2023-04-10T10:25:56.154Z,11.89
2023-04-10T10:28:25.225Z,12.04
2023-04-10T10:30:53.769Z,12.25
2023-04-10T10:33:23.312Z,12.43
2023-04-10T10:35:52.592Z,12.57
2023-04-10T10:38:27.323Z,12.61
2023-04-10T10:41:08.349Z,12.69
2023-04-10T10:43:44.328Z,12.76
2023-04-10T10:46:19.113Z,12.78
2023-04-10T10:49:00.623Z,12.91
2023-04-10T10:51:48.167Z,13.03
2023-04-10T10:54:32.533Z,13.18
2023-04-10T10:57:09.262Z,13.13
2023-04-10T10:59:43.723Z,13.04
2023-04-10T11:02:17.427Z,13.19
2023-04-10T11:04:47.033Z,13.38
2023-04-10T11:07:16.103Z,13.50
2023-04-10T11:09:53.832Z,13.59
2023-04-10T11:12:23.508Z,13.59
2023-04-10T11:15:17.858Z,13.62
2023-04-10T11:17:55.733Z,13.61
2023-04-10T11:20:27.515Z,13.55
2023-04-10T11:23:10.235Z,13.57
2023-04-10T11:25:52.705Z,13.67
2023-04-10T11:28:41.013Z,13.72
2023-04-10T11:31:22.256Z,13.79
2023-04-10T11:34:02.064Z,13.91
2023-04-10T11:36:30.677Z,14.01
2023-04-10T11:39:02.978Z,14.03
2023-04-10T11:41:32.530Z,14.08
2023-04-10T11:44:01.781Z,14.08
2023-04-10T11:46:30.891Z,14.13
2023-04-10T11:49:03.598Z,14.23
2023-04-10T11:51:32.646Z,14.21
2023-04-10T11:54:18.070Z,14.17
2023-04-10T11:56:58.038Z,14.26
2023-04-10T11:59:26.841Z,14.26
2023-04-10T12:02:14.658Z,14.24
2023-04-10T12:04:44.288Z,14.23
2023-04-10T12:07:14.793Z,14.17
2023-04-10T12:09:43.554Z,14.09
2023-04-10T12:12:12.632Z,14.03
2023-04-10T12:14:42.413Z,14.07
2023-04-10T12:17:11.806Z,14.06
2023-04-10T12:19:53.519Z,14.01
2023-04-10T12:22:22.067Z,13.96
2023-04-10T12:24:53.682Z,13.94
2023-04-10T12:27:22.873Z,13.81
2023-04-10T12:29:52.451Z,13.73
2023-04-10T12:32:20.794Z,13.61
2023-04-10T12:34:53.106Z,13.42
2023-04-10T12:37:26.737Z,13.29
2023-04-10T12:40:09.769Z,13.16
2023-04-10T12:42:40.541Z,12.99
2023-04-10T12:45:09.973Z,12.95
2023-04-10T12:47:47.011Z,12.92
2023-04-10T12:50:19.239Z,12.87
2023-04-10T12:53:07.881Z,12.82
2023-04-10T12:55:36.298Z,12.67
2023-04-10T12:58:18.127Z,12.57
2023-04-10T13:00:47.873Z,12.59
2023-04-10T13:03:16.696Z,12.58
2023-04-10T13:05:46.202Z,12.63
2023-04-10T13:08:14.880Z,12.78
2023-04-10T13:10:43.687Z,12.90
2023-04-10T13:13:14.233Z,13.00
2023-04-10T13:15:43.338Z,13.10
2023-04-10T13:18:11.733Z,13.21
2023-04-10T13:20:41.145Z,13.14
2023-04-10T13:23:10.484Z,12.98
2023-04-10T13:25:40.067Z,12.77
2023-04-10T13:28:11.340Z,12.51
2023-04-10T13:30:40.711Z,12.35
2023-04-10T13:33:09.946Z,12.31
2023-04-10T13:35:41.047Z,12.30
2023-04-10T13:38:12.161Z,12.43
2023-04-10T13:40:43.953Z,12.54
2023-04-10T13:43:13.447Z,12.59
2023-04-10T13:45:41.591Z,12.71
2023-04-10T13:48:11.398Z,12.80
2023-04-10T13:50:39.620Z,12.85
2023-04-10T13:53:15.128Z,12.91
2023-04-10T13:55:47.761Z,12.87
2023-04-10T13:58:17.565Z,12.72
2023-04-10T14:00:46.086Z,12.63
2023-04-10T14:03:15.391Z,12.49
2023-04-10T14:05:44.936Z,12.36
2023-04-10T14:08:15.901Z,12.32
2023-04-10T14:10:44.234Z,12.26
2023-04-10T14:13:12.688Z,12.20
2023-04-10T14:15:42.153Z,12.16
2023-04-10T14:18:10.503Z,12.08
2023-04-10T14:20:39.114Z,12.12
2023-04-10T14:23:09.135Z,12.12
2023-04-10T14:25:37.415Z,12.09
2023-04-10T14:28:05.701Z,12.18
2023-04-10T14:30:33.975Z,12.21
2023-04-10T14:33:02.235Z,12.18
2023-04-10T14:35:32.209Z,12.21
2023-04-10T14:38:00.873Z,12.19
2023-04-10T14:40:29.104Z,12.17
2023-04-10T14:42:57.514Z,12.23
2023-04-10T14:45:32.593Z,12.33
2023-04-10T14:48:02.452Z,12.42
2023-04-10T14:50:33.768Z,12.44
2023-04-10T14:53:02.492Z,12.46
2023-04-10T14:55:30.795Z,12.40
2023-04-10T14:58:06.874Z,12.37
2023-04-10T15:00:35.500Z,12.38
2023-04-10T15:03:07.465Z,12.35
2023-04-10T15:05:35.782Z,12.32
2023-04-10T15:08:04.445Z,12.35
2023-04-10T15:10:33.791Z,12.40
2023-04-10T15:13:03.400Z,12.53
2023-04-10T15:15:31.873Z,12.80
2023-04-10T15:18:00.136Z,13.01
2023-04-10T15:20:28.537Z,13.20
2023-04-10T15:22:58.569Z,13.47
2023-04-10T15:25:26.669Z,13.63
2023-04-10T15:27:56.781Z,13.78
2023-04-10T15:30:25.045Z,13.98
2023-04-10T15:32:55.728Z,14.20
2023-04-10T15:35:26.466Z,14.34
2023-04-10T15:37:54.742Z,14.39
2023-04-10T15:40:23.592Z,14.37
2023-04-10T15:42:53.034Z,14.28
2023-04-10T15:45:21.776Z,14.07
2023-04-10T15:47:49.985Z,13.79
2023-04-10T15:50:22.363Z,13.47
2023-04-10T15:52:51.280Z,13.24
2023-04-10T15:55:19.407Z,13.05
2023-04-10T15:57:50.781Z,12.91
2023-04-10T16:00:19.363Z,12.76
2023-04-10T16:02:47.803Z,12.62
2023-04-10T16:05:16.233Z,12.51
2023-04-10T16:07:46.434Z,12.43
2023-04-10T16:10:14.801Z,12.28
2023-04-10T16:12:48.651Z,12.11
2023-04-10T16:15:18.411Z,12.04
2023-04-10T16:17:46.694Z,11.98
2023-04-10T16:20:20.060Z,11.86
2023-04-10T16:22:49.418Z,11.73
2023-04-10T16:25:19.553Z,11.61
2023-04-10T16:27:50.742Z,11.56
2023-04-10T16:30:19.566Z,11.44
2023-04-10T16:32:54.739Z,11.30
2023-04-10T16:35:23.161Z,11.20
2023-04-10T16:37:52.572Z,11.15
2023-04-10T16:40:22.819Z,11.03
2023-04-10T16:42:51.254Z,10.89
2023-04-10T16:45:20.426Z,10.83
2023-04-10T16:47:49.143Z,10.79
2023-04-10T16:50:17.538Z,10.76
2023-04-10T16:52:45.729Z,10.68
2023-04-10T16:55:13.943Z,10.58
2023-04-10T16:57:42.823Z,10.52
2023-04-10T17:00:15.612Z,10.46
2023-04-10T17:02:45.257Z,10.39
2023-04-10T17:05:13.768Z,10.29
2023-04-10T17:07:45.097Z,10.21
2023-04-10T17:10:13.962Z,10.11
2023-04-10T17:12:43.919Z,10.05
2023-04-10T17:15:21.612Z,9.95
2023-04-10T17:18:07.991Z,9.83
2023-04-10T17:20:37.911Z,9.73
2023-04-10T17:23:06.610Z,9.65
2023-04-10T17:25:39.362Z,9.58
2023-04-10T17:28:09.068Z,9.55
2023-04-10T17:30:37.382Z,9.54
2023-04-10T17:33:05.831Z,9.48
2023-04-10T17:35:35.060Z,9.48
2023-04-10T17:38:03.466Z,9.50
2023-04-10T17:40:34.044Z,9.48
2023-04-10T17:43:02.837Z,9.45
2023-04-10T17:47:59.839Z,9.45
2023-04-10T17:50:29.548Z,9.37
2023-04-10T17:52:57.794Z,9.35
2023-04-10T17:55:26.965Z,9.35
2023-04-10T17:57:58.710Z,9.31
2023-04-10T18:00:30.234Z,9.29
2023-04-10T18:03:01.020Z,9.28
2023-04-10T18:05:34.904Z,9.26
2023-04-10T18:08:03.155Z,9.21
2023-04-10T18:10:32.240Z,9.21
2023-04-10T18:13:00.869Z,9.25
2023-04-10T18:15:32.089Z,9.22
2023-04-10T18:18:00.973Z,9.22
2023-04-10T18:20:29.406Z,9.23
2023-04-10T18:22:57.570Z,9.19
2023-04-10T18:25:26.285Z,9.15
2023-04-10T18:30:33.214Z,9.08
2023-04-10T18:33:04.566Z,8.97
2023-04-10T18:35:34.121Z,8.87
2023-04-10T18:38:03.394Z,8.88
2023-04-10T18:40:39.397Z,8.88
2023-04-10T18:43:08.051Z,8.89
2023-04-10T18:45:36.571Z,8.89
2023-04-10T18:48:05.797Z,8.90
2023-04-10T18:50:36.844Z,8.90
2023-04-10T18:53:11.094Z,8.85
2023-04-10T18:55:39.971Z,8.80
2023-04-10T18:58:08.268Z,8.80
2023-04-10T19:00:38.253Z,8.80
2023-04-10T19:03:07.928Z,8.79
2023-04-10T19:05:39.328Z,8.75
2023-04-10T19:08:08.168Z,8.77
2023-04-10T19:10:37.473Z,8.80
2023-04-10T19:13:12.217Z,8.80
2023-04-10T19:15:46.028Z,8.77
2023-04-10T19:18:16.453Z,8.79
2023-04-10T19:20:50.675Z,8.81
2023-04-10T19:23:22.449Z,8.81
2023-04-10T19:25:55.454Z,8.82
2023-04-10T19:28:26.290Z,8.84
2023-04-10T19:31:14.325Z,8.82
2023-04-10T19:33:42.506Z,8.81
2023-04-10T19:36:15.613Z,8.81
2023-04-10T19:38:48.592Z,8.80
2023-04-10T19:41:18.160Z,8.76
2023-04-10T19:43:47.348Z,8.79
2023-04-10T19:46:22.518Z,8.81
2023-04-10T19:48:52.207Z,8.77
2023-04-10T19:51:21.083Z,8.78
2023-04-10T19:53:51.691Z,8.81
2023-04-10T19:56:20.541Z,8.78
2023-04-10T19:58:51.389Z,8.79
2023-04-10T20:01:20.186Z,8.82
2023-04-10T20:03:50.250Z,8.82
2023-04-10T20:06:21.526Z,8.80
2023-04-10T20:08:50.016Z,8.81
2023-04-10T20:11:18.285Z,8.82
2023-04-10T20:13:50.245Z,8.81
2023-04-10T20:16:20.511Z,8.85
2023-04-10T20:18:49.386Z,8.87
2023-04-10T20:21:18.658Z,8.82
2023-04-10T20:23:48.150Z,8.84
2023-04-10T20:26:17.276Z,8.85
2023-04-10T20:28:45.465Z,8.83
2023-04-10T20:31:16.364Z,8.84
2023-04-10T20:33:44.722Z,8.85
2023-04-10T20:36:13.574Z,8.84
2023-04-10T20:38:41.801Z,8.91
2023-04-10T20:41:10.271Z,8.95
2023-04-10T20:43:39.037Z,8.97
2023-04-10T20:46:10.332Z,9.01
2023-04-10T20:48:38.842Z,9.09
2023-04-10T20:51:09.200Z,9.11
2023-04-10T20:53:38.483Z,9.15
2023-04-10T20:56:08.426Z,9.20
2023-04-10T20:58:36.734Z,9.18
2023-04-10T21:01:09.886Z,9.17
2023-04-10T21:03:40.262Z,9.20
2023-04-10T21:06:09.825Z,9.20
2023-04-10T21:08:38.918Z,9.22
2023-04-10T21:11:07.337Z,9.27
2023-04-10T21:13:38.308Z,9.28
2023-04-10T21:16:07.315Z,9.30
2023-04-10T21:18:36.061Z,9.32
2023-04-10T21:21:08.509Z,9.29
2023-04-10T21:23:36.978Z,9.30
2023-04-10T21:26:05.204Z,9.31
2023-04-10T21:28:35.359Z,9.28
2023-04-10T21:31:03.768Z,9.30
2023-04-10T21:33:32.658Z,9.30
2023-04-10T21:36:01.044Z,9.29
2023-04-10T21:38:29.895Z,9.33
2023-04-10T21:40:58.265Z,9.32
2023-04-10T21:43:27.198Z,9.32
2023-04-10T21:45:55.509Z,9.33
2023-04-10T21:48:23.754Z,9.30
2023-04-10T21:50:52.933Z,9.33
2023-04-10T21:53:22.983Z,9.29
2023-04-10T21:55:52.353Z,9.26
2023-04-10T21:58:24.842Z,9.23
2023-04-10T22:00:54.563Z,9.15
2023-04-10T22:03:24.260Z,9.14
2023-04-10T22:05:53.742Z,9.12
2023-04-10T22:08:22.344Z,9.14
2023-04-10T22:10:51.080Z,9.15
2023-04-10T22:13:30.194Z,9.12
2023-04-10T22:16:02.108Z,9.12
2023-04-10T22:18:31.417Z,9.08
2023-04-10T22:21:10.108Z,9.08
2023-04-10T22:23:38.326Z,9.05
2023-04-10T22:26:06.917Z,9.01
2023-04-10T22:28:36.698Z,8.98
2023-04-10T22:31:05.001Z,8.93
2023-04-10T22:33:33.550Z,8.89
2023-04-10T22:36:02.214Z,8.83
2023-04-10T22:38:30.931Z,8.76
2023-04-10T22:40:59.140Z,8.66
2023-04-10T22:43:27.270Z,8.62
2023-04-10T22:45:55.530Z,8.56
2023-04-10T22:48:25.270Z,8.43
2023-04-10T22:50:53.461Z,8.36
2023-04-10T22:53:23.993Z,8.25
2023-04-10T22:55:52.140Z,8.11
2023-04-10T22:58:22.900Z,8.05
2023-04-10T23:00:52.019Z,8.02
2023-04-10T23:03:20.459Z,7.95
2023-04-10T23:05:51.076Z,7.95
2023-04-10T23:08:19.580Z,7.96
2023-04-10T23:10:47.717Z,7.90
2023-04-10T23:13:19.016Z,7.82
2023-04-10T23:15:51.969Z,7.81
2023-04-10T23:18:20.723Z,7.79
2023-04-10T23:20:51.114Z,7.76
2023-04-10T23:23:20.406Z,7.77
2023-04-10T23:25:57.792Z,7.71
2023-04-10T23:28:26.550Z,7.61
2023-04-10T23:30:55.257Z,7.60
2023-04-10T23:33:23.729Z,7.54
2023-04-10T23:35:52.151Z,7.43
2023-04-10T23:38:22.384Z,7.42
2023-04-10T23:40:52.605Z,7.39
2023-04-10T23:43:21.204Z,7.35
2023-04-10T23:45:49.345Z,7.35
2023-04-10T23:48:20.138Z,7.35
2023-04-10T23:50:48.880Z,7.31
2023-04-10T23:53:17.211Z,7.38
2023-04-10T23:55:47.341Z,7.42
2023-04-10T23:58:15.505Z,7.43
